createdAt,value
2023-01-30T00:00:57.091Z,155.08
2023-01-30T00:01:57.179Z,156.25
2023-01-30T00:02:57.077Z,157.43
2023-01-30T00:03:57.030Z,156.99
2023-01-30T00:04:57.070Z,154.94
2023-01-30T00:05:56.999Z,157.43
2023-01-30T00:06:56.996Z,157.88
2023-01-30T00:07:56.965Z,158.48
2023-01-30T00:08:56.977Z,159.70
2023-01-30T00:09:56.947Z,157.14
2023-01-30T00:10:56.916Z,155.81
2023-01-30T00:11:56.931Z,157.28
2023-01-30T00:12:56.899Z,156.84
2023-01-30T00:13:56.931Z,158.48
2023-01-30T00:14:56.913Z,157.43
2023-01-30T00:15:56.937Z,157.28
2023-01-30T00:16:56.865Z,154.79
2023-01-30T00:17:56.867Z,154.65
2023-01-30T00:18:56.835Z,152.66
2023-01-30T00:19:56.809Z,151.83
2023-01-30T00:20:56.805Z,150.45
2023-01-30T00:21:56.787Z,149.64
2023-01-30T00:23:01.056Z,150.45
2023-01-30T00:23:56.768Z,150.45
2023-01-30T00:24:56.787Z,150.04
2023-01-30T00:25:56.739Z,149.64
2023-01-30T00:26:56.744Z,154.51
2023-01-30T00:27:56.735Z,160.01
2023-01-30T00:28:56.706Z,161.56
2023-01-30T00:30:02.889Z,165.26
2023-01-30T00:30:56.744Z,166.92
2023-01-30T00:31:56.740Z,166.42
2023-01-30T00:32:56.672Z,166.58
2023-01-30T00:33:56.635Z,166.92
2023-01-30T00:34:56.701Z,166.25
2023-01-30T00:35:56.619Z,164.93
2023-01-30T00:37:07.705Z,166.75
2023-01-30T00:37:56.596Z,164.12
2023-01-30T00:38:56.592Z,162.99
2023-01-30T00:39:56.596Z,160.63
2023-01-30T00:40:56.545Z,160.16
2023-01-30T00:41:56.536Z,159.40
2023-01-30T00:42:56.537Z,158.79
2023-01-30T00:43:56.518Z,156.40
2023-01-30T00:44:56.503Z,155.23
2023-01-30T00:45:56.501Z,154.36
2023-01-30T00:46:56.461Z,153.37
2023-01-30T00:47:56.482Z,152.38
2023-01-30T00:48:56.472Z,149.77
2023-01-30T00:49:56.439Z,148.04
2023-01-30T00:50:56.414Z,147.78
2023-01-30T00:51:56.407Z,147.65
2023-01-30T00:52:56.392Z,145.58
2023-01-30T00:53:56.385Z,144.31
2023-01-30T00:54:56.381Z,146.22
2023-01-30T00:55:56.398Z,145.45
2023-01-30T00:56:56.351Z,148.04
2023-01-30T00:57:56.328Z,145.45
2023-01-30T00:58:56.343Z,148.84
2023-01-30T00:59:56.309Z,152.10
2023-01-30T01:00:56.369Z,153.93
2023-01-30T01:01:56.378Z,152.38
2023-01-30T01:02:56.343Z,155.81
2023-01-30T01:03:56.259Z,152.24
2023-01-30T01:04:56.275Z,152.24
2023-01-30T01:05:56.226Z,150.73
2023-01-30T01:06:56.250Z,146.35
2023-01-30T01:07:56.213Z,144.94
2023-01-30T01:08:56.203Z,145.07
2023-01-30T01:09:56.174Z,140.77
2023-01-30T01:10:56.163Z,140.53
2023-01-30T01:11:56.157Z,139.82
2023-01-30T01:12:56.170Z,139.24
2023-01-30T01:13:56.144Z,140.41
2023-01-30T01:14:56.109Z,139.47
2023-01-30T01:15:56.118Z,136.38
2023-01-30T01:16:56.086Z,137.17
2023-01-30T01:17:56.110Z,136.61
2023-01-30T01:18:56.070Z,135.94
2023-01-30T01:19:56.087Z,135.82
2023-01-30T01:20:56.062Z,133.21
2023-01-30T01:21:56.055Z,131.01
2023-01-30T01:22:56.056Z,129.48
2023-01-30T01:23:55.999Z,130.19
2023-01-30T01:24:56.018Z,129.88
2023-01-30T01:25:55.979Z,131.53
2023-01-30T01:26:55.958Z,135.82
2023-01-30T01:27:55.966Z,137.40
2023-01-30T01:28:55.934Z,137.28
2023-01-30T01:29:55.934Z,139.82
2023-01-30T01:30:55.918Z,142.83
2023-01-30T01:31:55.915Z,144.31
2023-01-30T01:32:55.914Z,147.38
2023-01-30T01:33:55.880Z,149.37
2023-01-30T01:34:55.869Z,151.83
2023-01-30T01:35:55.881Z,151.41
2023-01-30T01:36:55.883Z,147.51
2023-01-30T01:37:55.852Z,148.30
2023-01-30T01:38:55.810Z,152.38
2023-01-30T01:39:55.825Z,151.41
2023-01-30T01:40:55.780Z,154.22
2023-01-30T01:41:55.776Z,150.73
2023-01-30T01:42:55.757Z,151.14
2023-01-30T01:43:55.795Z,151.69
2023-01-30T01:44:55.752Z,150.18
2023-01-30T01:45:55.765Z,150.18
2023-01-30T01:46:55.778Z,151.00
2023-01-30T01:47:55.704Z,151.83
2023-01-30T01:48:55.712Z,153.08
2023-01-30T01:49:55.678Z,151.55
2023-01-30T01:50:55.675Z,156.54
2023-01-30T01:51:55.649Z,160.94
2023-01-30T01:52:55.628Z,161.09
2023-01-30T01:53:55.675Z,163.79
2023-01-30T01:54:55.609Z,170.34
2023-01-30T01:55:55.605Z,174.63
2023-01-30T01:56:55.585Z,178.57
2023-01-30T01:57:55.571Z,179.73
2023-01-30T01:58:55.564Z,182.89
2023-01-30T01:59:55.583Z,180.12
2023-01-30T02:00:55.582Z,175.18
2023-01-30T02:01:55.609Z,179.54
2023-01-30T02:02:55.513Z,176.86
2023-01-30T02:03:55.499Z,177.81
2023-01-30T02:04:55.484Z,179.54
2023-01-30T02:05:55.487Z,174.08
2023-01-30T02:06:55.455Z,177.43
2023-01-30T02:07:55.499Z,176.11
2023-01-30T02:08:55.444Z,172.10
2023-01-30T02:09:55.424Z,176.49
2023-01-30T02:10:55.427Z,177.62
2023-01-30T02:11:55.404Z,178.00
2023-01-30T02:12:55.378Z,178.96
2023-01-30T02:13:55.368Z,181.69
2023-01-30T02:14:55.373Z,183.90
2023-01-30T02:15:55.347Z,184.52
2023-01-30T02:16:55.332Z,185.55
2023-01-30T02:17:55.367Z,186.80
2023-01-30T02:18:55.302Z,184.72
2023-01-30T02:19:55.311Z,178.38
2023-01-30T02:20:55.287Z,174.45
2023-01-30T02:21:55.295Z,169.82
2023-01-30T02:22:55.281Z,169.30
2023-01-30T02:23:55.247Z,171.39
2023-01-30T02:24:55.231Z,173.54
2023-01-30T02:25:56.475Z,174.63
2023-01-30T02:26:55.217Z,176.49
2023-01-30T02:27:55.201Z,174.82
2023-01-30T02:28:55.182Z,174.63
2023-01-30T02:29:55.167Z,176.49
2023-01-30T02:30:55.243Z,177.62
2023-01-30T02:31:55.158Z,180.51
2023-01-30T02:32:55.163Z,182.89
2023-01-30T02:33:55.137Z,185.55
2023-01-30T02:34:55.107Z,184.71
2023-01-30T02:35:55.135Z,184.52
2023-01-30T02:36:55.077Z,181.49
2023-01-30T02:37:55.071Z,184.11
2023-01-30T02:38:55.051Z,184.52
2023-01-30T02:39:55.041Z,181.69
2023-01-30T02:40:55.082Z,183.70
2023-01-30T02:41:55.077Z,185.13
2023-01-30T02:42:55.022Z,184.52
2023-01-30T02:43:54.991Z,185.13
2023-01-30T02:44:55.036Z,186.72
2023-01-30T02:45:55.061Z,186.59
2023-01-30T02:46:54.953Z,182.49
2023-01-30T02:47:54.951Z,184.61
2023-01-30T02:48:54.932Z,188.44
2023-01-30T02:49:54.919Z,196.60
2023-01-30T02:50:54.901Z,200.83
2023-01-30T02:51:54.933Z,203.07
2023-01-30T02:52:54.886Z,203.71
2023-01-30T02:53:54.867Z,209.05
2023-01-30T02:54:54.846Z,214.96
2023-01-30T02:55:54.896Z,219.14
2023-01-30T02:56:54.829Z,221.51
2023-01-30T02:57:54.860Z,220.32
2023-01-30T02:58:54.800Z,219.28
2023-01-30T02:59:54.791Z,216.09
2023-01-30T03:00:54.771Z,219.87
2023-01-30T03:01:54.794Z,224.87
2023-01-30T03:02:54.759Z,226.74
2023-01-30T03:03:54.749Z,230.57
2023-01-30T03:04:54.722Z,233.54
2023-01-30T03:05:54.715Z,235.22
2023-01-30T03:06:54.699Z,231.55
2023-01-30T03:07:54.707Z,228.16
2023-01-30T03:08:54.724Z,228.48
2023-01-30T03:09:54.674Z,229.76
2023-01-30T03:10:54.647Z,231.06
2023-01-30T03:11:54.640Z,234.38
2023-01-30T03:12:54.631Z,232.71
2023-01-30T03:13:54.622Z,230.41
2023-01-30T03:14:54.597Z,232.21
2023-01-30T03:15:54.622Z,231.88
2023-01-30T03:16:54.572Z,228.96
2023-01-30T03:17:54.596Z,223.33
2023-01-30T03:18:54.557Z,219.14
2023-01-30T03:19:54.567Z,222.12
2023-01-30T03:20:54.535Z,223.94
2023-01-30T03:21:54.514Z,222.12
2023-01-30T03:22:54.530Z,223.33
2023-01-30T03:23:54.567Z,220.02
2023-01-30T03:24:54.543Z,218.84
2023-01-30T03:25:54.522Z,217.24
2023-01-30T03:26:54.478Z,208.65
2023-01-30T03:27:54.447Z,204.85
2023-01-30T03:28:54.448Z,202.82
2023-01-30T03:29:54.416Z,197.55
2023-01-30T03:30:54.484Z,192.77
2023-01-30T03:31:54.461Z,188.66
2023-01-30T03:32:54.438Z,184.52
2023-01-30T03:33:54.417Z,180.51
2023-01-30T03:35:03.528Z,174.82
2023-01-30T03:35:54.345Z,168.10
2023-01-30T03:36:54.329Z,163.95
2023-01-30T03:37:54.318Z,158.79
2023-01-30T03:38:54.310Z,152.94
2023-01-30T03:39:54.316Z,149.51
2023-01-30T03:40:54.285Z,147.78
2023-01-30T03:41:54.264Z,145.96
2023-01-30T03:42:54.254Z,147.25
2023-01-30T03:43:54.239Z,146.22
2023-01-30T03:44:54.239Z,149.24
2023-01-30T03:45:54.295Z,150.86
2023-01-30T03:46:54.221Z,154.36
2023-01-30T03:47:54.220Z,149.10
2023-01-30T03:48:54.170Z,148.70
2023-01-30T03:49:54.195Z,151.41
2023-01-30T03:50:54.176Z,154.08
2023-01-30T03:51:54.149Z,156.40
2023-01-30T03:52:54.150Z,159.09
2023-01-30T03:53:54.126Z,160.47
2023-01-30T03:54:54.115Z,161.25
2023-01-30T03:55:54.100Z,161.56
2023-01-30T03:56:54.084Z,161.25
2023-01-30T03:57:54.064Z,157.43
2023-01-30T03:58:54.045Z,158.18
2023-01-30T03:59:54.057Z,155.37
2023-01-30T04:00:55.958Z,155.37
2023-01-30T04:01:54.047Z,155.52
2023-01-30T04:02:54.009Z,153.23
2023-01-30T04:03:54.010Z,155.23
2023-01-30T04:04:53.988Z,154.65
2023-01-30T04:05:53.968Z,151.27
2023-01-30T04:06:53.955Z,155.81
2023-01-30T04:07:53.938Z,162.67
2023-01-30T04:08:53.923Z,165.42
2023-01-30T04:09:53.911Z,166.25
2023-01-30T04:10:53.939Z,162.51
2023-01-30T04:11:53.897Z,165.26
2023-01-30T04:12:53.892Z,168.44
2023-01-30T04:13:53.881Z,171.04
2023-01-30T04:14:53.885Z,169.47
2023-01-30T04:15:53.840Z,174.45
2023-01-30T04:16:53.837Z,173.00
2023-01-30T04:17:53.811Z,172.64
2023-01-30T04:18:53.835Z,175.18
2023-01-30T04:19:53.783Z,176.11
2023-01-30T04:20:53.784Z,173.00
2023-01-30T04:21:53.791Z,171.21
2023-01-30T04:22:53.773Z,174.08
2023-01-30T04:23:53.762Z,176.86
2023-01-30T04:24:53.726Z,179.15
2023-01-30T04:25:53.729Z,176.67
2023-01-30T04:26:53.704Z,174.08
2023-01-30T04:27:53.740Z,167.25
2023-01-30T04:28:53.711Z,167.93
2023-01-30T04:29:53.662Z,169.82
2023-01-30T04:30:53.755Z,174.27
2023-01-30T04:31:53.662Z,178.19
2023-01-30T04:32:53.627Z,179.54
2023-01-30T04:33:53.614Z,180.90
2023-01-30T04:34:53.625Z,185.55
2023-01-30T04:35:53.614Z,180.31
2023-01-30T04:36:53.598Z,179.34
2023-01-30T04:37:53.569Z,174.82
2023-01-30T04:38:53.558Z,174.27
2023-01-30T04:39:53.573Z,173.00
2023-01-30T04:40:53.532Z,169.64
2023-01-30T04:41:53.520Z,174.08
2023-01-30T04:42:53.512Z,171.21
2023-01-30T04:43:53.518Z,175.37
2023-01-30T04:44:53.523Z,176.30
2023-01-30T04:45:53.486Z,173.18
2023-01-30T04:46:53.505Z,175.18
2023-01-30T04:47:53.517Z,183.09
2023-01-30T04:48:53.436Z,185.96
2023-01-30T04:49:53.424Z,183.50
2023-01-30T04:50:53.411Z,181.30
2023-01-30T04:51:53.396Z,185.13
2023-01-30T04:52:53.369Z,185.13
2023-01-30T04:53:53.360Z,185.97
2023-01-30T04:54:53.359Z,187.04
2023-01-30T04:55:53.332Z,185.55
2023-01-30T04:56:53.334Z,181.69
2023-01-30T04:57:53.323Z,181.69
2023-01-30T04:58:53.298Z,185.13
2023-01-30T04:59:53.283Z,179.92
2023-01-30T05:00:53.361Z,180.51
2023-01-30T05:01:53.372Z,184.93
2023-01-30T05:02:53.260Z,187.47
2023-01-30T05:03:53.231Z,188.11
2023-01-30T05:04:53.245Z,185.97
2023-01-30T05:05:53.206Z,188.66
2023-01-30T05:06:53.265Z,192.77
2023-01-30T05:07:53.197Z,190.19
2023-01-30T05:08:53.178Z,189.42
2023-01-30T05:09:53.151Z,193.92
2023-01-30T05:10:53.161Z,192.21
2023-01-30T05:11:53.132Z,195.54
2023-01-30T05:12:53.130Z,191.98
2023-01-30T05:13:53.115Z,185.55
2023-01-30T05:14:53.098Z,184.93
2023-01-30T05:15:53.111Z,180.90
2023-01-30T05:16:53.093Z,173.90
2023-01-30T05:17:53.065Z,168.78
2023-01-30T05:18:53.049Z,178.19
2023-01-30T05:19:53.025Z,181.89
2023-01-30T05:20:53.016Z,185.55
2023-01-30T05:21:53.017Z,185.13
2023-01-30T05:22:53.003Z,184.52
2023-01-30T05:23:52.976Z,182.09
2023-01-30T05:24:52.971Z,178.96
2023-01-30T05:25:52.968Z,168.61
2023-01-30T05:26:52.954Z,168.27
2023-01-30T05:27:52.945Z,169.30
2023-01-30T05:28:52.979Z,167.59
2023-01-30T05:29:52.907Z,166.75
2023-01-30T05:30:52.947Z,159.09
2023-01-30T05:31:52.942Z,151.27
2023-01-30T05:32:52.910Z,147.78
2023-01-30T05:33:52.869Z,137.85
2023-01-30T05:34:52.845Z,140.29
2023-01-30T05:35:52.843Z,140.29
2023-01-30T05:36:52.838Z,138.89
2023-01-30T05:37:52.839Z,141.13
2023-01-30T05:38:52.811Z,137.51
2023-01-30T05:39:52.807Z,131.21
2023-01-30T05:40:52.798Z,124.91
2023-01-30T05:41:52.767Z,125.95
2023-01-30T05:42:52.772Z,127.00
2023-01-30T05:43:52.742Z,125.47
2023-01-30T05:44:52.718Z,122.24
2023-01-30T05:45:52.748Z,117.82
2023-01-30T05:46:52.753Z,119.78
2023-01-30T05:47:54.785Z,119.95
2023-01-30T05:48:52.708Z,123.33
2023-01-30T05:49:52.670Z,130.60
2023-01-30T05:50:52.645Z,130.19
2023-01-30T05:51:52.640Z,131.42
2023-01-30T05:52:52.636Z,132.79
2023-01-30T05:53:52.615Z,134.07
2023-01-30T05:54:52.592Z,139.71
2023-01-30T05:55:52.618Z,138.43
2023-01-30T05:56:52.574Z,139.82
2023-01-30T05:57:52.551Z,138.43
2023-01-30T05:58:52.560Z,143.69
2023-01-30T05:59:52.546Z,143.69
2023-01-30T06:00:52.542Z,134.62
2023-01-30T06:01:52.507Z,135.38
2023-01-30T06:02:52.516Z,143.57
2023-01-30T06:03:52.621Z,152.66
2023-01-30T06:04:52.474Z,147.38
2023-01-30T06:05:52.471Z,156.54
2023-01-30T06:06:52.445Z,156.99
2023-01-30T06:07:52.427Z,151.83
2023-01-30T06:08:52.444Z,148.70
2023-01-30T06:09:52.401Z,143.69
2023-01-30T06:10:52.404Z,144.69
2023-01-30T06:11:52.509Z,139.82
2023-01-30T06:12:52.362Z,139.59
2023-01-30T06:13:52.412Z,152.94
2023-01-30T06:14:52.344Z,150.04
2023-01-30T06:15:52.359Z,156.40
2023-01-30T06:16:52.321Z,151.14
2023-01-30T06:17:52.314Z,146.73
2023-01-30T06:18:52.309Z,139.82
2023-01-30T06:19:52.316Z,133.32
2023-01-30T06:20:52.296Z,140.65
2023-01-30T06:21:52.259Z,142.21
2023-01-30T06:22:52.252Z,150.73
2023-01-30T06:23:52.248Z,143.44
2023-01-30T06:24:52.220Z,137.40
2023-01-30T06:25:52.268Z,135.60
2023-01-30T06:26:52.280Z,145.96
2023-01-30T06:27:52.177Z,156.54
2023-01-30T06:28:52.174Z,163.15
2023-01-30T06:29:52.163Z,165.09
2023-01-30T06:30:52.321Z,166.42
2023-01-30T06:31:52.118Z,158.48
2023-01-30T06:32:52.136Z,170.86
2023-01-30T06:33:52.097Z,163.47
2023-01-30T06:34:52.094Z,175.00
2023-01-30T06:35:52.073Z,173.72
2023-01-30T06:36:52.059Z,177.43
2023-01-30T06:37:52.054Z,173.72
2023-01-30T06:38:52.035Z,185.55
2023-01-30T06:39:52.033Z,189.09
2023-01-30T06:40:52.005Z,181.49
2023-01-30T06:41:51.991Z,185.66
2023-01-30T06:42:51.989Z,186.29
2023-01-30T06:43:51.978Z,199.24
2023-01-30T06:44:51.968Z,205.11
2023-01-30T06:45:52.012Z,199.85
2023-01-30T06:46:51.930Z,214.82
2023-01-30T06:47:51.927Z,222.12
2023-01-30T06:48:51.918Z,223.33
2023-01-30T06:49:51.905Z,226.58
2023-01-30T06:50:51.877Z,222.57
2023-01-30T06:51:51.879Z,214.96
2023-01-30T06:52:51.871Z,195.54
2023-01-30T06:53:53.343Z,178.19
2023-01-30T06:54:51.865Z,174.27
2023-01-30T06:55:51.817Z,169.47
2023-01-30T06:56:51.804Z,182.49
2023-01-30T06:57:51.795Z,189.42
2023-01-30T06:58:51.817Z,194.49
2023-01-30T06:59:51.782Z,201.82
2023-01-30T07:00:51.774Z,209.72
2023-01-30T07:01:51.800Z,215.95
2023-01-30T07:02:51.755Z,212.44
2023-01-30T07:03:51.749Z,189.42
2023-01-30T07:04:51.732Z,190.53
2023-01-30T07:05:51.697Z,201.07
2023-01-30T07:06:51.694Z,197.31
2023-01-30T07:07:51.686Z,205.37
2023-01-30T07:08:51.656Z,196.36
2023-01-30T07:10:06.743Z,190.41
2023-01-30T07:10:51.648Z,192.66
2023-01-30T07:11:51.630Z,208.78
2023-01-30T07:12:51.606Z,218.11
2023-01-30T07:13:51.587Z,219.73
2023-01-30T07:14:51.585Z,225.80
2023-01-30T07:15:51.588Z,243.09
2023-01-30T07:16:51.633Z,239.35
2023-01-30T07:17:51.602Z,250.35
2023-01-30T07:18:51.559Z,241.30
2023-01-30T07:19:51.553Z,235.22
2023-01-30T07:20:51.506Z,245.46
2023-01-30T07:21:51.509Z,247.88
2023-01-30T07:22:51.477Z,247.88
2023-01-30T07:23:51.471Z,252.68
2023-01-30T07:24:51.474Z,247.32
2023-01-30T07:25:51.458Z,249.59
2023-01-30T07:26:51.434Z,256.04
2023-01-30T07:27:51.412Z,252.09
2023-01-30T07:28:51.414Z,253.85
2023-01-30T07:29:52.555Z,256.24
2023-01-30T07:30:51.424Z,269.11
2023-01-30T07:31:51.408Z,269.33
2023-01-30T07:32:51.362Z,257.65
2023-01-30T07:33:51.345Z,259.70
2023-01-30T07:34:51.335Z,254.64
2023-01-30T07:35:51.333Z,268.45
2023-01-30T07:36:51.305Z,287.58
2023-01-30T07:37:51.309Z,287.07
2023-01-30T07:38:51.284Z,277.80
2023-01-30T07:39:51.277Z,279.94
2023-01-30T07:40:51.271Z,294.04
2023-01-30T07:41:51.268Z,302.48
2023-01-30T07:42:51.250Z,306.73
2023-01-30T07:43:51.219Z,317.77
2023-01-30T07:44:51.207Z,315.31
2023-01-30T07:45:51.217Z,303.04
2023-01-30T07:46:51.228Z,311.11
2023-01-30T07:47:51.159Z,307.31
2023-01-30T07:48:51.156Z,318.08
2023-01-30T07:49:51.145Z,342.76
2023-01-30T07:50:51.157Z,360.92
2023-01-30T07:51:51.114Z,369.91
2023-01-30T07:52:51.101Z,366.18
2023-01-30T07:53:51.107Z,350.85
2023-01-30T07:54:51.089Z,363.33
2023-01-30T07:55:51.068Z,384.90
2023-01-30T07:56:51.095Z,398.52
2023-01-30T07:57:51.069Z,392.86
2023-01-30T07:58:51.034Z,401.17
2023-01-30T07:59:51.042Z,415.47
2023-01-30T08:00:51.050Z,404.59
2023-01-30T08:01:51.004Z,414.43
2023-01-30T08:02:50.983Z,423.95
2023-01-30T08:03:50.967Z,442.01
2023-01-30T08:04:50.998Z,457.22
2023-01-30T08:05:50.938Z,491.74
2023-01-30T08:06:50.941Z,510.63
2023-01-30T08:07:50.915Z,525.17
2023-01-30T08:08:50.934Z,534.46
2023-01-30T08:09:50.893Z,531.47
2023-01-30T08:10:50.879Z,551.77
2023-01-30T08:11:50.890Z,558.73
2023-01-30T08:12:50.865Z,578.18
2023-01-30T08:13:50.838Z,577.18
2023-01-30T08:14:50.860Z,567.32
2023-01-30T08:15:50.815Z,553.61
2023-01-30T08:16:50.857Z,565.39
2023-01-30T08:17:50.784Z,585.32
2023-01-30T08:18:50.825Z,573.69
2023-01-30T08:19:50.783Z,564.43
2023-01-30T08:20:50.768Z,575.18
2023-01-30T08:21:50.746Z,594.75
2023-01-30T08:22:50.732Z,599.04
2023-01-30T08:23:50.732Z,610.04
2023-01-30T08:24:50.710Z,610.60
2023-01-30T08:25:50.696Z,624.96
2023-01-30T08:26:50.702Z,630.90
2023-01-30T08:27:50.673Z,619.14
2023-01-30T08:28:50.664Z,612.29
2023-01-30T08:29:50.658Z,592.10
2023-01-30T08:30:50.733Z,582.75
2023-01-30T08:31:50.641Z,602.84
2023-01-30T08:32:50.612Z,611.73
2023-01-30T08:33:50.603Z,616.84
2023-01-30T08:34:50.608Z,620.87
2023-01-30T08:35:50.572Z,640.02
2023-01-30T08:36:50.555Z,638.78
2023-01-30T08:37:50.558Z,627.92
2023-01-30T08:38:50.538Z,644.36
2023-01-30T08:39:50.523Z,675.14
2023-01-30T08:40:50.514Z,684.18
2023-01-30T08:41:50.498Z,672.40
2023-01-30T08:42:50.498Z,678.59
2023-01-30T08:43:50.489Z,678.59
2023-01-30T08:44:50.463Z,684.88
2023-01-30T08:45:50.442Z,682.77
2023-01-30T08:46:50.451Z,680.67
2023-01-30T08:47:50.420Z,678.59
2023-01-30T08:48:50.556Z,687.01
2023-01-30T08:49:50.393Z,700.04
2023-01-30T08:50:50.376Z,715.88
2023-01-30T08:51:50.390Z,720.54
2023-01-30T08:52:50.384Z,718.98
2023-01-30T08:53:50.343Z,741.45
2023-01-30T08:54:50.359Z,723.68
2023-01-30T08:55:50.318Z,712.04
2023-01-30T08:56:50.307Z,732.45
2023-01-30T08:57:50.355Z,744.77
2023-01-30T08:58:50.295Z,750.99
2023-01-30T08:59:50.276Z,749.72
2023-01-30T09:00:50.357Z,761.30
2023-01-30T09:01:50.260Z,759.13
2023-01-30T09:02:50.266Z,763.93
2023-01-30T09:03:50.244Z,769.23
2023-01-30T09:04:50.225Z,779.60
2023-01-30T09:05:50.189Z,776.87
2023-01-30T09:06:50.192Z,760.00
2023-01-30T09:07:50.206Z,787.45
2023-01-30T09:08:50.191Z,776.87
2023-01-30T09:09:50.142Z,787.91
2023-01-30T09:10:50.145Z,797.84
2023-01-30T09:11:50.134Z,798.32
2023-01-30T09:12:50.104Z,809.49
2023-01-30T09:13:50.097Z,797.36
2023-01-30T09:14:50.084Z,797.84
2023-01-30T09:15:50.068Z,816.45
2023-01-30T09:16:50.170Z,808.02
2023-01-30T09:17:50.053Z,803.62
2023-01-30T09:18:50.033Z,779.14
2023-01-30T09:19:50.013Z,763.05
2023-01-30T09:20:50.758Z,751.41
2023-01-30T09:21:49.985Z,756.11
2023-01-30T09:22:49.980Z,748.87
2023-01-30T09:23:49.981Z,745.93
2023-01-30T09:24:49.943Z,761.30
2023-01-30T09:25:49.937Z,782.35
2023-01-30T09:26:49.979Z,784.20
2023-01-30T09:27:49.919Z,773.71
2023-01-30T09:28:49.914Z,733.26
2023-01-30T09:29:49.895Z,736.51
2023-01-30T09:30:50.037Z,760.43
2023-01-30T09:31:49.857Z,749.72
2023-01-30T09:32:49.866Z,763.93
2023-01-30T09:33:49.831Z,783.74
2023-01-30T09:34:56.332Z,787.45
2023-01-30T09:35:49.805Z,792.14
2023-01-30T09:36:49.789Z,795.93
2023-01-30T09:37:49.828Z,812.46
2023-01-30T09:38:49.767Z,818.97
2023-01-30T09:39:49.780Z,819.97
2023-01-30T09:40:49.751Z,772.81
2023-01-30T09:41:49.736Z,740.62
2023-01-30T09:42:49.715Z,703.00
2023-01-30T09:43:49.710Z,730.84
2023-01-30T09:44:49.698Z,735.70
2023-01-30T09:45:49.767Z,743.10
2023-01-30T09:46:49.679Z,784.20
2023-01-30T09:47:49.659Z,805.57
2023-01-30T09:48:49.635Z,831.25
2023-01-30T09:49:49.647Z,849.30
2023-01-30T09:50:49.616Z,880.21
2023-01-30T09:51:49.593Z,901.08
2023-01-30T09:52:50.262Z,891.42
2023-01-30T09:53:49.576Z,893.22
2023-01-30T09:54:49.568Z,925.54
2023-01-30T09:55:49.564Z,934.65
2023-01-30T09:56:49.552Z,928.77
2023-01-30T09:57:49.520Z,949.32
2023-01-30T09:58:49.506Z,966.57
2023-01-30T09:59:49.507Z,991.80
2023-01-30T10:00:49.491Z,1006.81
2023-01-30T10:01:49.473Z,1007.58
2023-01-30T10:02:49.463Z,1011.41
2023-01-30T10:03:49.454Z,1016.04
2023-01-30T10:05:01.012Z,1019.94
2023-01-30T10:05:49.430Z,1016.04
2023-01-30T10:06:49.410Z,1002.26
2023-01-30T10:07:49.410Z,995.51
2023-01-30T10:08:49.382Z,1006.81
2023-01-30T10:09:49.373Z,1006.81
2023-01-30T10:10:55.047Z,998.50
2023-01-30T10:11:49.344Z,981.55
2023-01-30T10:12:49.332Z,975.07
2023-01-30T10:13:49.353Z,938.60
2023-01-30T10:14:49.305Z,917.87
2023-01-30T10:15:49.354Z,894.42
2023-01-30T10:16:49.285Z,901.69
2023-01-30T10:17:49.259Z,917.24
2023-01-30T10:18:49.243Z,934.65
2023-01-30T10:19:49.261Z,937.28
2023-01-30T10:20:49.227Z,924.25
2023-01-30T10:21:49.228Z,919.78
2023-01-30T10:22:49.197Z,922.97
2023-01-30T10:23:49.189Z,928.77
2023-01-30T10:24:49.169Z,938.60
2023-01-30T10:25:49.151Z,932.68
2023-01-30T10:26:49.189Z,924.25
2023-01-30T10:27:49.132Z,909.09
2023-01-30T10:28:55.490Z,909.71
2023-01-30T10:29:49.136Z,910.96
2023-01-30T10:30:49.261Z,898.65
2023-01-30T10:31:49.148Z,893.22
2023-01-30T10:32:49.067Z,906.61
2023-01-30T10:33:49.051Z,895.62
2023-01-30T10:34:49.057Z,873.28
2023-01-30T10:35:49.039Z,872.13
2023-01-30T10:36:49.050Z,884.31
2023-01-30T10:37:49.003Z,883.72
2023-01-30T10:38:49.004Z,886.08
2023-01-30T10:39:55.187Z,886.67
2023-01-30T10:40:48.965Z,895.62
2023-01-30T10:41:48.973Z,871.56
2023-01-30T10:42:48.970Z,869.28
2023-01-30T10:43:48.950Z,864.20
2023-01-30T10:44:48.984Z,852.02
2023-01-30T10:45:48.899Z,844.44
2023-01-30T10:46:48.945Z,855.30
2023-01-30T10:47:48.891Z,855.85
2023-01-30T10:48:48.877Z,869.28
2023-01-30T10:49:48.847Z,859.73
2023-01-30T10:50:48.846Z,832.81
2023-01-30T10:51:48.832Z,838.59
2023-01-30T10:52:48.849Z,835.95
2023-01-30T10:53:48.807Z,843.37
2023-01-30T10:54:48.786Z,865.32
2023-01-30T10:55:48.795Z,866.45
2023-01-30T10:56:48.758Z,854.76
2023-01-30T10:57:48.804Z,852.56
2023-01-30T10:58:48.740Z,841.77
2023-01-30T10:59:48.730Z,821.49
2023-01-30T11:00:48.706Z,811.47
2023-01-30T11:01:49.737Z,777.32
2023-01-30T11:02:51.587Z,798.32
2023-01-30T11:03:48.668Z,802.66
2023-01-30T11:04:48.655Z,819.47
2023-01-30T11:05:48.651Z,828.14
2023-01-30T11:06:48.633Z,840.71
2023-01-30T11:07:48.628Z,862.52
2023-01-30T11:08:48.620Z,858.06
2023-01-30T11:09:48.596Z,817.96
2023-01-30T11:10:48.578Z,796.41
2023-01-30T11:11:48.591Z,776.41
2023-01-30T11:12:48.555Z,805.08
2023-01-30T11:13:48.549Z,809.99
2023-01-30T11:14:48.528Z,835.95
2023-01-30T11:15:48.585Z,810.97
2023-01-30T11:16:48.516Z,802.66
2023-01-30T11:17:48.515Z,790.26
2023-01-30T11:19:18.822Z,818.46
2023-01-30T11:19:48.460Z,852.02
2023-01-30T11:20:48.459Z,834.90
2023-01-30T11:21:48.463Z,846.59
2023-01-30T11:22:48.444Z,831.25
2023-01-30T11:23:48.420Z,833.85
2023-01-30T11:24:48.397Z,849.84
2023-01-30T11:25:49.221Z,864.20
2023-01-30T11:26:48.850Z,852.02
2023-01-30T11:27:48.364Z,869.28
2023-01-30T11:28:49.095Z,871.56
2023-01-30T11:29:48.334Z,873.28
2023-01-30T11:30:48.358Z,868.15
2023-01-30T11:31:48.416Z,859.73
2023-01-30T11:32:48.299Z,850.93
2023-01-30T11:33:48.287Z,850.38
2023-01-30T11:34:48.275Z,835.95
2023-01-30T11:35:48.273Z,829.18
2023-01-30T11:36:48.250Z,846.06
2023-01-30T11:37:48.259Z,857.51
2023-01-30T11:38:48.213Z,849.30
2023-01-30T11:39:48.210Z,852.02
2023-01-30T11:40:48.229Z,869.28
2023-01-30T11:41:48.207Z,886.08
2023-01-30T11:42:48.162Z,882.55
2023-01-30T11:43:48.156Z,899.26
2023-01-30T11:44:48.148Z,889.04
2023-01-30T11:45:48.162Z,886.08
2023-01-30T11:46:48.110Z,898.65
2023-01-30T11:47:57.285Z,895.02
2023-01-30T11:49:02.408Z,880.21
2023-01-30T11:49:57.590Z,868.71
2023-01-30T11:51:32.155Z,867.58
2023-01-30T11:51:48.056Z,848.21
2023-01-30T11:52:48.037Z,856.41
2023-01-30T11:53:48.033Z,873.28
2023-01-30T11:54:48.065Z,867.01
2023-01-30T11:56:02.165Z,869.85
2023-01-30T11:56:48.013Z,872.13
2023-01-30T11:57:47.968Z,871.56
2023-01-30T11:58:48.025Z,883.13
2023-01-30T11:59:47.955Z,868.15
2023-01-30T12:00:47.953Z,871.56
2023-01-30T12:01:47.944Z,886.08
2023-01-30T12:02:47.971Z,874.42
2023-01-30T12:03:47.907Z,847.67
2023-01-30T12:04:47.880Z,832.29
2023-01-30T12:05:47.897Z,833.33
2023-01-30T12:06:47.857Z,834.90
2023-01-30T12:07:47.854Z,821.49
2023-01-30T12:08:47.839Z,805.57
2023-01-30T12:09:47.820Z,811.97
2023-01-30T12:10:47.834Z,806.55
2023-01-30T12:11:47.819Z,800.72
2023-01-30T12:12:47.777Z,810.48
2023-01-30T12:13:47.769Z,808.51
2023-01-30T12:14:47.753Z,792.61
2023-01-30T12:15:47.756Z,786.98
2023-01-30T12:16:47.730Z,791.67
2023-01-30T12:17:47.719Z,807.53
2023-01-30T12:18:47.773Z,825.57
2023-01-30T12:19:47.708Z,826.09
2023-01-30T12:20:47.679Z,830.73
2023-01-30T12:21:47.699Z,808.51
2023-01-30T12:22:47.660Z,805.57
2023-01-30T12:23:47.642Z,796.41
2023-01-30T12:24:47.683Z,793.56
2023-01-30T12:25:47.651Z,803.62
2023-01-30T12:26:47.653Z,799.28
2023-01-30T12:27:47.597Z,782.81
2023-01-30T12:28:47.594Z,769.23